createdAt,value
2019-04-25T00:01:26.673Z,14.84
2019-04-25T00:03:56.708Z,14.85
2019-04-25T00:06:27.056Z,14.85
2019-04-25T00:08:57.100Z,14.83
2019-04-25T00:11:27.247Z,14.80
2019-04-25T00:13:57.289Z,14.78
2019-04-25T00:16:31.127Z,14.74
2019-04-25T00:19:01.836Z,14.77
2019-04-25T00:21:39.178Z,14.74
2019-04-25T00:24:17.448Z,14.77
2019-04-25T00:26:49.867Z,14.77
2019-04-25T00:29:21.797Z,14.76
2019-04-25T00:31:53.301Z,14.78
2019-04-25T00:34:23.884Z,14.83
2019-04-25T00:36:53.935Z,14.90
2019-04-25T00:39:24.019Z,14.90
2019-04-25T00:41:54.068Z,14.96
2019-04-25T00:44:24.109Z,15.07
2019-04-25T00:46:56.705Z,15.07
2019-04-25T00:49:26.008Z,15.12
2019-04-25T00:51:56.102Z,15.07
2019-04-25T00:54:26.142Z,15.10
2019-04-25T00:56:56.169Z,15.11
2019-04-25T00:59:54.120Z,15.11
2019-04-25T01:02:33.153Z,15.12
2019-04-25T01:05:04.921Z,15.16
2019-04-25T01:07:34.941Z,15.13
2019-04-25T01:10:06.537Z,15.14
2019-04-25T01:12:36.563Z,15.15
2019-04-25T01:15:08.343Z,15.13
2019-04-25T01:17:38.391Z,15.11
2019-04-25T01:20:08.951Z,15.14
2019-04-25T01:22:39.103Z,15.13
2019-04-25T01:25:09.326Z,15.12
2019-04-25T01:27:39.373Z,15.15
2019-04-25T01:30:09.436Z,15.10
2019-04-25T01:32:39.453Z,15.06
2019-04-25T01:35:27.552Z,15.04
2019-04-25T01:38:14.980Z,15.04
2019-04-25T01:41:16.180Z,15.06
2019-04-25T01:43:52.820Z,15.09
2019-04-25T01:46:21.740Z,15.02
2019-04-25T01:48:54.114Z,15.02
2019-04-25T01:51:24.106Z,15.04
2019-04-25T01:53:54.866Z,15.07
2019-04-25T01:56:25.785Z,15.06
2019-04-25T01:58:57.351Z,15.06
2019-04-25T02:01:27.676Z,15.05
2019-04-25T02:03:57.708Z,14.96
2019-04-25T02:06:28.084Z,14.96
2019-04-25T02:08:58.261Z,14.99
2019-04-25T02:11:36.472Z,14.95
2019-04-25T02:14:07.199Z,14.95
2019-04-25T02:16:37.321Z,14.98
2019-04-25T02:19:07.435Z,14.98
2019-04-25T02:21:37.548Z,15.00
2019-04-25T02:24:07.661Z,14.95
2019-04-25T02:26:37.775Z,14.86
2019-04-25T02:29:07.899Z,14.84
2019-04-25T02:31:38.049Z,14.85
2019-04-25T02:34:08.793Z,14.87
2019-04-25T02:36:38.981Z,14.85
2019-04-25T02:39:15.577Z,14.87
2019-04-25T02:41:45.692Z,14.82
2019-04-25T02:44:15.832Z,14.84
2019-04-25T02:47:00.959Z,14.83
2019-04-25T02:49:36.929Z,14.81
2019-04-25T02:52:15.262Z,14.84
2019-04-25T02:54:44.898Z,14.84
2019-04-25T02:57:15.068Z,14.81
2019-04-25T02:59:45.312Z,14.81
2019-04-25T03:02:15.763Z,14.80
2019-04-25T03:04:45.832Z,14.78
2019-04-25T03:07:17.523Z,14.76
2019-04-25T03:09:47.815Z,14.74
2019-04-25T03:12:29.685Z,14.75
2019-04-25T03:14:49.635Z,14.72
2019-04-25T03:17:19.669Z,14.66
2019-04-25T03:20:10.264Z,14.66
2019-04-25T03:22:39.072Z,14.61
2019-04-25T03:25:13.028Z,14.63
2019-04-25T03:27:40.840Z,14.68
2019-04-25T03:30:13.771Z,14.70
2019-04-25T03:32:45.141Z,14.73
2019-04-25T03:35:14.616Z,14.76
2019-04-25T03:37:44.637Z,14.80
2019-04-25T03:40:14.674Z,14.78
2019-04-25T03:42:44.741Z,14.75
2019-04-25T03:45:14.951Z,14.78
2019-04-25T03:47:45.031Z,14.79
2019-04-25T03:50:15.852Z,14.79
2019-04-25T03:52:45.913Z,14.79
2019-04-25T03:55:15.943Z,14.81
2019-04-25T03:57:45.975Z,14.82
2019-04-25T04:00:16.030Z,14.84
2019-04-25T04:02:46.083Z,14.87
2019-04-25T04:05:16.113Z,14.81
2019-04-25T04:07:46.143Z,14.79
2019-04-25T04:10:16.236Z,14.81
2019-04-25T04:12:46.371Z,14.82
2019-04-25T04:15:16.954Z,14.82
2019-04-25T04:17:55.587Z,14.82
2019-04-25T04:20:47.421Z,14.84
2019-04-25T04:23:23.212Z,14.87
2019-04-25T04:25:54.617Z,14.87
2019-04-25T04:28:24.723Z,14.89
2019-04-25T04:30:55.719Z,14.92
2019-04-25T04:33:32.176Z,14.96
2019-04-25T04:35:57.620Z,15.00
2019-04-25T04:38:27.724Z,15.03
2019-04-25T04:40:57.837Z,15.01
2019-04-25T04:43:27.954Z,15.01
2019-04-25T04:45:58.029Z,15.07
2019-04-25T04:48:28.118Z,15.10
2019-04-25T04:50:58.207Z,15.11
2019-04-25T04:53:28.303Z,15.09
2019-04-25T04:55:59.373Z,15.12
2019-04-25T04:58:29.443Z,15.12
2019-04-25T05:00:59.500Z,15.13
2019-04-25T05:03:48.289Z,15.13
2019-04-25T05:06:24.064Z,15.18
2019-04-25T05:08:58.465Z,15.15
2019-04-25T05:11:28.579Z,15.13
2019-04-25T05:13:58.683Z,15.13
2019-04-25T05:16:28.792Z,15.16
2019-04-25T05:18:58.823Z,15.16
2019-04-25T05:21:28.860Z,15.15
2019-04-25T05:23:58.879Z,15.16
2019-04-25T05:26:28.948Z,15.15
2019-04-25T05:28:58.946Z,15.11
2019-04-25T05:31:50.004Z,15.06
2019-04-25T05:34:20.103Z,15.00
2019-04-25T05:36:50.129Z,15.00
2019-04-25T05:39:20.407Z,15.02
2019-04-25T05:42:07.512Z,14.99
2019-04-25T05:44:36.969Z,14.96
2019-04-25T05:47:06.987Z,14.95
2019-04-25T05:49:37.001Z,14.92
2019-04-25T05:52:07.026Z,14.90
2019-04-25T05:54:37.099Z,14.89
2019-04-25T05:57:07.120Z,14.89
2019-04-25T05:59:37.204Z,14.88
2019-04-25T06:02:07.251Z,14.89
2019-04-25T06:04:37.259Z,14.85
2019-04-25T06:07:07.267Z,14.84
2019-04-25T06:09:56.263Z,14.81
2019-04-25T06:12:34.891Z,14.81
2019-04-25T06:15:05.391Z,14.84
2019-04-25T06:17:58.346Z,14.89
2019-04-25T06:20:34.397Z,14.87
2019-04-25T06:23:13.214Z,14.80
2019-04-25T06:25:43.961Z,14.82
2019-04-25T06:28:16.318Z,14.87
2019-04-25T06:30:46.320Z,14.88
2019-04-25T06:33:16.411Z,14.89
2019-04-25T06:35:46.435Z,14.90
2019-04-25T06:38:16.480Z,14.95
2019-04-25T06:40:47.112Z,14.97
2019-04-25T06:43:17.108Z,14.98
2019-04-25T06:46:08.850Z,15.00
2019-04-25T06:48:48.721Z,15.03
2019-04-25T06:51:18.732Z,15.06
2019-04-25T06:53:48.799Z,15.04
2019-04-25T06:56:18.796Z,15.12
2019-04-25T06:58:48.943Z,15.15
2019-04-25T07:01:18.953Z,15.18
2019-04-25T07:03:49.043Z,15.21
2019-04-25T07:06:19.071Z,15.23
2019-04-25T07:08:49.151Z,15.23
2019-04-25T07:11:19.183Z,15.27
2019-04-25T07:13:49.252Z,15.24
2019-04-25T07:16:19.251Z,15.24
2019-04-25T07:18:50.432Z,15.19
2019-04-25T07:21:20.455Z,15.24
2019-04-25T07:23:50.571Z,15.27
2019-04-25T07:26:37.724Z,15.27
2019-04-25T07:29:18.627Z,15.21
2019-04-25T07:31:57.074Z,15.27
2019-04-25T07:34:27.470Z,15.22
2019-04-25T07:36:57.733Z,15.31
2019-04-25T07:39:27.800Z,15.41
2019-04-25T07:41:57.788Z,15.45
2019-04-25T07:44:38.156Z,15.58
2019-04-25T07:46:59.555Z,15.57
2019-04-25T07:49:30.478Z,15.62
2019-04-25T07:52:00.516Z,15.61
2019-04-25T07:54:30.721Z,15.52
2019-04-25T07:57:00.803Z,15.49
2019-04-25T07:59:31.031Z,15.39
2019-04-25T08:02:01.075Z,15.36
2019-04-25T08:04:31.810Z,15.44
2019-04-25T08:07:01.861Z,15.31
2019-04-25T08:09:31.899Z,15.31
2019-04-25T08:12:03.337Z,15.35
2019-04-25T08:14:43.727Z,15.70
2019-04-25T08:17:15.039Z,15.83
2019-04-25T08:19:45.055Z,15.83
2019-04-25T08:22:15.184Z,15.99
2019-04-25T08:24:45.190Z,16.05
2019-04-25T08:27:15.224Z,16.17
2019-04-25T08:29:46.523Z,16.22
2019-04-25T08:32:16.554Z,16.17
2019-04-25T08:34:46.592Z,16.10
2019-04-25T08:37:19.133Z,16.23
2019-04-25T08:39:48.383Z,16.29
2019-04-25T08:42:18.416Z,16.25
2019-04-25T08:44:48.527Z,16.21
2019-04-25T08:47:18.657Z,16.15
2019-04-25T08:50:00.136Z,16.06
2019-04-25T08:52:30.942Z,15.86
2019-04-25T08:55:09.804Z,15.76
2019-04-25T08:57:54.098Z,15.76
2019-04-25T09:00:35.536Z,15.63
2019-04-25T09:03:08.158Z,15.63
2019-04-25T09:05:44.051Z,15.63
2019-04-25T09:08:14.226Z,15.67
2019-04-25T09:10:44.900Z,15.67
2019-04-25T09:13:15.111Z,15.72
2019-04-25T09:15:45.758Z,15.76
2019-04-25T09:18:15.951Z,15.83
2019-04-25T09:20:46.761Z,16.00
2019-04-25T09:23:16.916Z,16.07
2019-04-25T09:25:47.000Z,16.13
2019-04-25T09:28:17.094Z,16.17
2019-04-25T09:30:47.121Z,16.11
2019-04-25T09:33:17.143Z,16.20
2019-04-25T09:35:47.155Z,16.69
2019-04-25T09:38:18.192Z,16.69
2019-04-25T09:40:48.205Z,16.87
2019-04-25T09:43:18.370Z,16.98
2019-04-25T09:46:06.143Z,17.01
2019-04-25T09:48:58.957Z,16.97
2019-04-25T09:51:35.903Z,16.95
2019-04-25T09:54:24.707Z,17.09
2019-04-25T09:56:58.076Z,17.21
2019-04-25T09:59:30.074Z,17.11
2019-04-25T10:01:59.848Z,17.06
2019-04-25T10:04:29.929Z,16.88
2019-04-25T10:06:59.935Z,16.78
2019-04-25T10:09:29.927Z,16.59
2019-04-25T10:11:59.995Z,16.54
2019-04-25T10:15:00.099Z,16.55
2019-04-25T10:17:30.169Z,16.54
2019-04-25T10:20:00.172Z,16.63
2019-04-25T10:22:30.287Z,16.74
2019-04-25T10:25:00.860Z,16.88
2019-04-25T10:27:32.139Z,16.95
2019-04-25T10:30:16.018Z,17.04
2019-04-25T10:32:34.220Z,17.08
2019-04-25T10:35:04.451Z,17.09
2019-04-25T10:37:35.351Z,17.10
2019-04-25T10:40:06.294Z,17.07
2019-04-25T10:42:39.054Z,16.85
2019-04-25T10:45:20.552Z,16.61
2019-04-25T10:47:40.967Z,16.44
2019-04-25T10:50:11.058Z,16.35
2019-04-25T10:52:41.589Z,16.21
2019-04-25T10:55:11.559Z,16.13
2019-04-25T10:57:42.082Z,16.09
2019-04-25T11:00:24.770Z,16.06
2019-04-25T11:02:56.473Z,16.08
2019-04-25T11:05:26.559Z,16.01
2019-04-25T11:07:56.727Z,16.04
2019-04-25T11:10:26.744Z,16.09
2019-04-25T11:12:56.847Z,16.12
2019-04-25T11:15:26.851Z,16.19
2019-04-25T11:17:56.939Z,16.35
2019-04-25T11:20:27.376Z,16.60
2019-04-25T11:22:57.412Z,16.93
2019-04-25T11:25:27.435Z,17.24
2019-04-25T11:27:57.487Z,17.65
2019-04-25T11:30:29.212Z,17.93
2019-04-25T11:32:59.471Z,18.06
2019-04-25T11:35:29.611Z,18.00
2019-04-25T11:38:03.449Z,18.01
2019-04-25T11:40:48.135Z,17.97
2019-04-25T11:43:16.835Z,17.84
2019-04-25T11:45:47.445Z,17.63
2019-04-25T11:48:17.460Z,17.34
2019-04-25T11:50:50.338Z,17.13
2019-04-25T11:53:20.202Z,16.98
2019-04-25T11:55:51.334Z,16.87
2019-04-25T11:58:23.485Z,16.76
2019-04-25T12:00:57.625Z,16.70
2019-04-25T12:03:25.494Z,16.63
2019-04-25T12:05:55.499Z,16.54
2019-04-25T12:08:25.565Z,16.45
2019-04-25T12:10:55.650Z,16.30
2019-04-25T12:13:25.728Z,16.24
2019-04-25T12:15:55.762Z,16.20
2019-04-25T12:18:25.789Z,16.14
2019-04-25T12:20:57.987Z,16.13
2019-04-25T12:23:27.583Z,16.15
2019-04-25T12:25:57.811Z,16.14
2019-04-25T12:28:27.815Z,16.18
2019-04-25T12:30:57.827Z,16.13
2019-04-25T12:33:27.832Z,16.12
2019-04-25T12:35:58.233Z,16.05
2019-04-25T12:38:28.258Z,16.07
2019-04-25T12:40:58.451Z,15.97
2019-04-25T12:43:30.272Z,15.90
2019-04-25T12:46:15.107Z,15.91
2019-04-25T12:48:45.996Z,15.97
2019-04-25T12:51:16.324Z,15.97
2019-04-25T12:53:47.988Z,16.11
2019-04-25T12:56:20.327Z,16.37
2019-04-25T12:58:49.890Z,16.55
2019-04-25T13:01:20.903Z,16.71
2019-04-25T13:03:50.924Z,16.79
2019-04-25T13:06:20.999Z,16.94
2019-04-25T13:08:51.190Z,17.07
2019-04-25T13:11:21.411Z,17.11
2019-04-25T13:13:51.493Z,17.12
2019-04-25T13:16:21.575Z,17.06
2019-04-25T13:18:51.688Z,16.94
2019-04-25T13:21:23.406Z,16.81
2019-04-25T13:23:53.566Z,16.63
2019-04-25T13:26:26.132Z,16.45
2019-04-25T13:29:13.971Z,16.24
2019-04-25T13:31:53.185Z,16.05
2019-04-25T13:34:36.164Z,15.68
2019-04-25T13:37:01.007Z,15.68
2019-04-25T13:39:31.091Z,15.58
2019-04-25T13:42:02.419Z,15.55
2019-04-25T13:44:34.253Z,15.48
2019-04-25T13:47:05.247Z,15.36
2019-04-25T13:49:35.267Z,15.34
2019-04-25T13:52:05.739Z,15.37
2019-04-25T13:54:35.759Z,15.44
2019-04-25T13:57:05.830Z,15.51
2019-04-25T13:59:35.882Z,15.57
2019-04-25T14:02:08.355Z,15.67
2019-04-25T14:04:38.388Z,15.77
2019-04-25T14:07:08.446Z,15.81
2019-04-25T14:09:38.510Z,15.88
2019-04-25T14:12:09.235Z,15.92
2019-04-25T14:14:39.348Z,15.91
2019-04-25T14:17:26.678Z,15.89
2019-04-25T14:20:08.089Z,15.92
2019-04-25T14:22:38.172Z,15.97
2019-04-25T14:25:08.487Z,15.98
2019-04-25T14:27:38.555Z,16.04
2019-04-25T14:30:10.608Z,16.10
2019-04-25T14:32:40.783Z,16.14
2019-04-25T14:35:10.815Z,16.19
2019-04-25T14:37:40.984Z,16.16
2019-04-25T14:40:11.107Z,16.14
2019-04-25T14:42:41.279Z,16.12
2019-04-25T14:45:11.283Z,16.12
2019-04-25T14:47:42.107Z,16.12
2019-04-25T14:50:12.125Z,16.14
2019-04-25T14:52:42.195Z,16.13
2019-04-25T14:55:33.963Z,16.17
2019-04-25T14:58:06.492Z,16.12
2019-04-25T15:00:42.033Z,16.12
2019-04-25T15:03:12.226Z,16.17
2019-04-25T15:05:43.508Z,16.12
2019-04-25T15:08:13.721Z,16.03
2019-04-25T15:10:43.723Z,16.03
2019-04-25T15:13:13.856Z,15.96
2019-04-25T15:15:43.827Z,15.92
2019-04-25T15:18:14.948Z,15.92
2019-04-25T15:20:44.995Z,15.94
2019-04-25T15:23:15.089Z,15.99
2019-04-25T15:25:45.125Z,16.03
2019-04-25T15:28:15.152Z,16.02
2019-04-25T15:30:45.923Z,16.05
2019-04-25T15:33:16.995Z,16.01
2019-04-25T15:35:52.665Z,15.97
2019-04-25T15:38:33.556Z,15.97
2019-04-25T15:41:30.817Z,15.88
2019-04-25T15:44:30.887Z,15.72
2019-04-25T15:47:01.699Z,15.72
2019-04-25T15:49:31.891Z,15.66
2019-04-25T15:52:02.006Z,15.66
2019-04-25T15:54:33.878Z,15.59
2019-04-25T15:57:03.995Z,15.65
2019-04-25T15:59:34.902Z,15.66
2019-04-25T16:02:08.192Z,15.63
2019-04-25T16:04:38.480Z,15.65
2019-04-25T16:07:08.508Z,15.65
2019-04-25T16:09:39.258Z,15.69
2019-04-25T16:12:09.987Z,15.70
2019-04-25T16:14:40.050Z,15.71
2019-04-25T16:17:11.230Z,15.76
2019-04-25T16:19:41.280Z,15.76
2019-04-25T16:22:13.578Z,15.83
2019-04-25T16:24:43.575Z,15.81
2019-04-25T16:27:14.087Z,15.91
2019-04-25T16:29:44.151Z,15.91
2019-04-25T16:32:20.708Z,15.92
2019-04-25T16:34:49.675Z,15.87
2019-04-25T16:37:19.715Z,15.93
2019-04-25T16:39:49.711Z,15.86
2019-04-25T16:42:19.724Z,15.81
2019-04-25T16:44:52.081Z,15.78
2019-04-25T16:47:24.158Z,15.73
2019-04-25T16:49:55.061Z,15.67
2019-04-25T16:52:26.699Z,15.59
2019-04-25T16:54:56.796Z,15.51
2019-04-25T16:57:26.808Z,15.51
2019-04-25T16:59:56.852Z,15.54
2019-04-25T17:02:35.495Z,15.52
2019-04-25T17:05:02.197Z,15.50
2019-04-25T17:07:32.265Z,15.50
2019-04-25T17:10:02.341Z,15.28
2019-04-25T17:12:32.435Z,15.26
2019-04-25T17:15:10.792Z,15.26
2019-04-25T17:17:50.868Z,15.28
2019-04-25T17:20:29.899Z,15.36
2019-04-25T17:23:00.935Z,15.43
2019-04-25T17:25:31.298Z,15.66
2019-04-25T17:28:01.536Z,15.66
2019-04-25T17:30:34.665Z,15.76
2019-04-25T17:33:42.517Z,15.82
2019-04-25T17:36:20.604Z,15.88
2019-04-25T17:38:54.664Z,15.92
2019-04-25T17:41:24.754Z,15.91
2019-04-25T17:43:54.918Z,15.91
2019-04-25T17:46:25.015Z,15.85
2019-04-25T17:48:55.057Z,15.85
2019-04-25T17:51:25.155Z,15.76
2019-04-25T17:53:55.259Z,15.68
2019-04-25T17:56:25.334Z,15.68
2019-04-25T17:58:55.427Z,15.69
2019-04-25T18:01:25.549Z,15.61
2019-04-25T18:03:57.378Z,15.56
2019-04-25T18:06:27.451Z,15.35
2019-04-25T18:08:57.577Z,15.20
2019-04-25T18:11:28.419Z,15.20
2019-04-25T18:13:58.549Z,15.07
2019-04-25T18:16:41.102Z,14.97
2019-04-25T18:19:30.148Z,14.96
2019-04-25T18:22:06.181Z,14.85
2019-04-25T18:24:57.986Z,14.87
2019-04-25T18:27:36.653Z,14.81
2019-04-25T18:30:07.720Z,14.72
2019-04-25T18:32:39.424Z,14.68
2019-04-25T18:35:20.586Z,14.68
2019-04-25T18:38:12.296Z,14.68
2019-04-25T18:40:54.827Z,14.66
2019-04-25T18:43:27.955Z,14.52
2019-04-25T18:46:02.675Z,14.37
2019-04-25T18:48:32.688Z,14.28
2019-04-25T18:51:02.740Z,14.22
2019-04-25T18:53:54.551Z,14.20
2019-04-25T18:56:37.705Z,14.21
2019-04-25T18:59:25.428Z,14.19
2019-04-25T19:02:15.240Z,14.11
2019-04-25T19:05:04.217Z,13.86
2019-04-25T19:07:34.447Z,14.00
2019-04-25T19:10:05.834Z,14.02
2019-04-25T19:12:35.872Z,14.09
2019-04-25T19:15:05.989Z,14.16
2019-04-25T19:17:36.124Z,14.21
2019-04-25T19:20:06.229Z,14.27
2019-04-25T19:22:36.321Z,14.29
2019-04-25T19:25:06.576Z,14.24
2019-04-25T19:27:36.715Z,14.34
2019-04-25T19:30:08.012Z,14.37
2019-04-25T19:32:38.307Z,14.40
2019-04-25T19:35:08.351Z,14.43
2019-04-25T19:37:39.483Z,14.51
2019-04-25T19:40:38.128Z,14.55
2019-04-25T19:43:16.108Z,14.59
2019-04-25T19:45:46.970Z,14.63
2019-04-25T19:48:17.132Z,14.66
2019-04-25T19:50:47.951Z,14.68
2019-04-25T19:53:17.912Z,14.72
2019-04-25T19:55:47.968Z,14.74
2019-04-25T19:58:18.031Z,14.75
2019-04-25T20:00:49.165Z,14.75
2019-04-25T20:03:51.870Z,14.72
2019-04-25T20:06:45.484Z,14.71
2019-04-25T20:09:37.266Z,14.62
2019-04-25T20:12:07.393Z,14.60
2019-04-25T20:14:37.450Z,14.53
2019-04-25T20:17:07.509Z,14.51
2019-04-25T20:19:37.681Z,14.44
2019-04-25T20:22:07.722Z,14.40
2019-04-25T20:24:37.753Z,14.35
2019-04-25T20:27:07.798Z,14.37
2019-04-25T20:29:37.832Z,14.36
2019-04-25T20:32:07.850Z,14.35
2019-04-25T20:34:38.036Z,14.30
2019-04-25T20:37:09.067Z,14.30
2019-04-25T20:39:40.224Z,14.27
2019-04-25T20:42:10.300Z,14.23
2019-04-25T20:44:40.345Z,14.23
2019-04-25T20:47:10.449Z,14.14
2019-04-25T20:49:40.584Z,14.06
2019-04-25T20:52:10.801Z,14.00
2019-04-25T20:54:40.852Z,13.92
2019-04-25T20:57:11.044Z,13.82
2019-04-25T20:59:41.118Z,13.78
2019-04-25T21:02:11.244Z,13.74
2019-04-25T21:04:44.088Z,13.75
2019-04-25T21:07:14.213Z,13.71
2019-04-25T21:09:44.360Z,13.68
2019-04-25T21:12:14.523Z,13.64
2019-04-25T21:15:02.206Z,13.60
2019-04-25T21:17:35.413Z,13.62
2019-04-25T21:20:05.922Z,13.59
2019-04-25T21:22:35.974Z,13.62
2019-04-25T21:25:06.079Z,13.59
2019-04-25T21:27:36.123Z,13.53
2019-04-25T21:30:06.552Z,13.54
2019-04-25T21:32:53.088Z,13.46
2019-04-25T21:35:23.792Z,13.44
2019-04-25T21:37:53.856Z,13.43
2019-04-25T21:40:45.885Z,13.44
2019-04-25T21:43:20.441Z,13.41
2019-04-25T21:45:50.767Z,13.38
2019-04-25T21:48:22.096Z,13.32
2019-04-25T21:50:53.560Z,13.26
2019-04-25T21:53:23.714Z,13.25
2019-04-25T21:55:54.560Z,13.23
2019-04-25T21:58:25.524Z,13.14
2019-04-25T22:01:12.473Z,13.11
2019-04-25T22:03:42.602Z,13.08
2019-04-25T22:06:13.029Z,12.99
2019-04-25T22:08:43.087Z,12.91
2019-04-25T22:11:13.164Z,12.83
2019-04-25T22:13:43.565Z,12.77
2019-04-25T22:16:13.828Z,12.71
2019-04-25T22:18:44.122Z,12.61
2019-04-25T22:21:14.352Z,12.53
2019-04-25T22:23:44.643Z,12.54
2019-04-25T22:26:14.760Z,12.50
2019-04-25T22:28:44.964Z,12.43
2019-04-25T22:31:21.293Z,12.36
2019-04-25T22:34:13.410Z,12.29
2019-04-25T22:36:43.902Z,12.23
2019-04-25T22:39:14.219Z,12.23
2019-04-25T22:41:47.184Z,12.27
2019-04-25T22:44:18.157Z,12.32
2019-04-25T22:46:48.489Z,12.29
2019-04-25T22:49:18.575Z,12.28
2019-04-25T22:51:48.652Z,12.28
2019-04-25T22:54:18.986Z,12.33
2019-04-25T22:56:49.043Z,12.28
2019-04-25T22:59:19.349Z,12.24
2019-04-25T23:01:59.625Z,12.27
2019-04-25T23:05:05.193Z,12.32
2019-04-25T23:07:30.636Z,12.26
2019-04-25T23:10:01.950Z,12.22
2019-04-25T23:12:32.804Z,12.19
2019-04-25T23:15:04.039Z,12.20
2019-04-25T23:17:34.660Z,12.20
2019-04-25T23:20:05.716Z,12.24
2019-04-25T23:22:35.844Z,12.28
2019-04-25T23:25:09.975Z,12.32
2019-04-25T23:27:59.268Z,12.31
2019-04-25T23:30:35.564Z,12.33
2019-04-25T23:33:06.683Z,12.39
2019-04-25T23:35:38.380Z,12.42
2019-04-25T23:38:10.804Z,12.44
2019-04-25T23:40:40.309Z,12.51
2019-04-25T23:43:11.678Z,12.50
2019-04-25T23:45:41.819Z,12.49
2019-04-25T23:48:12.413Z,12.49
2019-04-25T23:50:42.524Z,12.55
2019-04-25T23:53:12.892Z,12.56
2019-04-25T23:55:42.996Z,12.59
2019-04-25T23:58:13.460Z,12.65
